createdAt,value
2023-01-23T00:01:28.493Z,25.70
2023-01-23T00:03:56.401Z,25.67
2023-01-23T00:06:23.959Z,26.17
2023-01-23T00:08:51.028Z,25.00
2023-01-23T00:11:21.077Z,26.00
2023-01-23T00:13:47.902Z,26.45
2023-01-23T00:16:17.421Z,27.85
2023-01-23T00:18:44.207Z,26.83
2023-01-23T00:21:16.040Z,27.38
2023-01-23T00:23:48.168Z,27.23
2023-01-23T00:26:17.765Z,28.20
2023-01-23T00:28:46.673Z,29.38
2023-01-23T00:31:17.918Z,28.20
2023-01-23T00:33:45.778Z,28.95
2023-01-23T00:36:14.236Z,28.65
2023-01-23T00:38:41.603Z,30.05
2023-01-23T00:41:08.886Z,29.00
2023-01-23T00:43:35.724Z,28.80
2023-01-23T00:46:02.841Z,28.52
2023-01-23T00:48:29.691Z,27.92
2023-01-23T00:50:56.766Z,26.90
2023-01-23T00:53:23.707Z,28.77
2023-01-23T00:55:50.641Z,28.10
2023-01-23T00:58:18.650Z,29.58
2023-01-23T01:00:45.649Z,29.70
2023-01-23T01:03:12.506Z,28.40
2023-01-23T01:05:41.096Z,28.58
2023-01-23T01:08:07.833Z,29.40
2023-01-23T01:10:34.899Z,28.50
2023-01-23T01:13:03.331Z,31.50
2023-01-23T01:15:30.983Z,28.10
2023-01-23T01:17:58.644Z,28.85
2023-01-23T01:20:27.153Z,25.20
2023-01-23T01:22:59.459Z,27.42
2023-01-23T01:25:26.566Z,27.27
2023-01-23T01:27:56.047Z,26.50
2023-01-23T01:30:23.379Z,26.50
2023-01-23T01:32:50.205Z,25.05
2023-01-23T01:35:16.996Z,26.42
2023-01-23T01:37:43.812Z,27.30
2023-01-23T01:40:18.711Z,25.55
2023-01-23T01:43:01.412Z,26.83
2023-01-23T01:46:04.669Z,26.77
2023-01-23T01:48:37.339Z,24.75
2023-01-23T01:51:23.059Z,26.25
2023-01-23T01:54:10.395Z,26.20
2023-01-23T01:57:00.863Z,26.30
2023-01-23T01:59:32.174Z,25.75
2023-01-23T02:02:13.840Z,25.42
2023-01-23T02:04:48.876Z,26.55
2023-01-23T02:07:49.007Z,25.42
2023-01-23T02:10:16.932Z,24.00
2023-01-23T02:12:52.042Z,26.20
2023-01-23T02:15:20.431Z,24.35
2023-01-23T02:17:49.896Z,25.05
2023-01-23T02:20:36.991Z,25.40
2023-01-23T02:23:25.633Z,25.05
2023-01-23T02:26:06.785Z,24.35
2023-01-23T02:28:40.768Z,23.77
2023-01-23T02:31:09.358Z,23.83
2023-01-23T02:33:39.081Z,25.00
2023-01-23T02:36:09.108Z,23.75
2023-01-23T02:38:45.962Z,23.02
2023-01-23T02:41:15.958Z,24.23
2023-01-23T02:43:44.129Z,23.77
2023-01-23T02:46:13.081Z,22.17
2023-01-23T02:48:40.928Z,22.40
2023-01-23T02:51:08.196Z,23.08
2023-01-23T02:53:35.045Z,21.58
2023-01-23T02:56:01.895Z,23.77
2023-01-23T02:58:47.873Z,22.33
2023-01-23T03:01:14.688Z,21.92
2023-01-23T03:03:44.323Z,21.35
2023-01-23T03:06:12.782Z,20.92
2023-01-23T03:08:49.272Z,21.77
2023-01-23T03:11:18.650Z,21.67
2023-01-23T03:13:47.192Z,19.42
2023-01-23T03:16:14.853Z,18.85
2023-01-23T03:18:53.419Z,20.23
2023-01-23T03:21:21.396Z,21.83
2023-01-23T03:23:48.418Z,20.50
2023-01-23T03:26:15.902Z,22.80
2023-01-23T03:29:01.756Z,21.85
2023-01-23T03:31:28.805Z,22.65
2023-01-23T03:33:55.724Z,21.77
2023-01-23T03:36:23.559Z,23.30
2023-01-23T03:39:09.729Z,21.75
2023-01-23T03:41:38.347Z,21.95
2023-01-23T03:44:06.528Z,21.15
2023-01-23T03:46:33.448Z,21.65
2023-01-23T03:49:00.230Z,20.45
2023-01-23T03:51:27.521Z,20.23
2023-01-23T03:53:54.660Z,21.90
2023-01-23T03:56:21.648Z,22.08
2023-01-23T03:58:48.489Z,21.38
2023-01-23T04:01:15.561Z,21.52
2023-01-23T04:03:44.600Z,21.40
2023-01-23T04:06:11.577Z,20.77
2023-01-23T04:08:39.029Z,20.95
2023-01-23T04:11:08.372Z,20.80
2023-01-23T04:13:35.879Z,19.60
2023-01-23T04:16:03.800Z,19.90
2023-01-23T04:18:30.861Z,18.50
2023-01-23T04:20:58.649Z,19.10
2023-01-23T04:23:26.264Z,19.05
2023-01-23T04:25:54.005Z,18.27
2023-01-23T04:28:22.013Z,18.77
2023-01-23T04:30:53.532Z,18.98
2023-01-23T04:33:30.948Z,18.60
2023-01-23T04:36:01.036Z,18.50
2023-01-23T04:38:31.025Z,18.67
2023-01-23T04:41:07.530Z,17.88
2023-01-23T04:43:37.431Z,18.17
2023-01-23T04:46:08.461Z,18.27
2023-01-23T04:48:55.015Z,17.13
2023-01-23T04:51:24.008Z,18.40
2023-01-23T04:53:51.106Z,18.90
2023-01-23T04:56:18.021Z,18.60
2023-01-23T04:58:44.849Z,17.38
2023-01-23T05:01:16.767Z,17.20
2023-01-23T05:03:44.709Z,17.02
2023-01-23T05:06:11.497Z,16.33
2023-01-23T05:08:38.232Z,17.27
2023-01-23T05:11:28.125Z,17.90
2023-01-23T05:13:55.115Z,17.42
2023-01-23T05:16:21.914Z,17.73
2023-01-23T05:19:12.832Z,16.55
2023-01-23T05:21:39.836Z,17.40
2023-01-23T05:24:10.746Z,17.60
2023-01-23T05:26:38.089Z,18.02
2023-01-23T05:29:05.071Z,18.33
2023-01-23T05:31:35.535Z,18.13
2023-01-23T05:34:25.379Z,18.08
2023-01-23T05:36:52.237Z,17.05
2023-01-23T05:39:20.078Z,17.65
2023-01-23T05:41:47.099Z,18.88
2023-01-23T05:44:39.903Z,17.03
2023-01-23T05:47:14.633Z,18.13
2023-01-23T05:49:41.357Z,17.75
2023-01-23T05:52:09.150Z,18.42
2023-01-23T05:54:35.906Z,17.23
2023-01-23T05:57:02.768Z,17.77
2023-01-23T06:00:11.872Z,17.15
2023-01-23T06:03:00.100Z,18.27
2023-01-23T06:05:45.460Z,18.58
2023-01-23T06:08:19.717Z,18.55
2023-01-23T06:10:46.612Z,18.90
2023-01-23T06:13:13.992Z,17.90
2023-01-23T06:15:42.114Z,18.10
2023-01-23T06:18:11.352Z,17.15
2023-01-23T06:20:38.254Z,18.52
2023-01-23T06:23:05.715Z,18.65
2023-01-23T06:25:33.319Z,17.52
2023-01-23T06:28:06.190Z,17.30
2023-01-23T06:30:37.009Z,18.40
2023-01-23T06:33:10.422Z,18.05
2023-01-23T06:35:41.107Z,19.55
2023-01-23T06:38:08.161Z,19.45
2023-01-23T06:40:35.924Z,17.88
2023-01-23T06:43:17.686Z,17.80
2023-01-23T06:45:46.033Z,18.17
2023-01-23T06:48:13.428Z,18.63
2023-01-23T06:50:43.145Z,18.20
2023-01-23T06:53:14.495Z,19.33
2023-01-23T06:55:41.771Z,18.23
2023-01-23T06:58:08.676Z,18.88
2023-01-23T07:00:35.932Z,19.38
2023-01-23T07:03:06.444Z,19.83
2023-01-23T07:05:39.703Z,18.67
2023-01-23T07:08:08.475Z,19.25
2023-01-23T07:10:37.841Z,18.63
2023-01-23T07:13:09.842Z,18.40
2023-01-23T07:15:38.657Z,18.90
2023-01-23T07:18:09.128Z,18.17
2023-01-23T07:20:35.958Z,18.15
2023-01-23T07:23:04.712Z,19.50
2023-01-23T07:25:31.576Z,17.95
2023-01-23T07:27:58.357Z,19.63
2023-01-23T07:30:26.360Z,18.77
2023-01-23T07:32:53.580Z,18.85
2023-01-23T07:35:22.248Z,19.27
2023-01-23T07:37:48.975Z,19.67
2023-01-23T07:40:15.907Z,19.05
2023-01-23T07:42:42.819Z,19.63
2023-01-23T07:45:10.988Z,19.27
2023-01-23T07:47:41.533Z,19.92
2023-01-23T07:50:14.578Z,19.15
2023-01-23T07:52:41.750Z,19.02
2023-01-23T07:55:08.931Z,20.60
2023-01-23T07:57:35.752Z,20.10
2023-01-23T08:00:02.964Z,20.30
2023-01-23T08:02:40.251Z,20.08
2023-01-23T08:05:07.554Z,21.27
2023-01-23T08:07:34.509Z,20.00
2023-01-23T08:10:01.319Z,20.70
2023-01-23T08:12:29.408Z,20.55
2023-01-23T08:14:58.693Z,19.27
2023-01-23T08:17:25.768Z,20.73
2023-01-23T08:19:52.706Z,20.48
2023-01-23T08:22:19.508Z,20.55
2023-01-23T08:24:47.318Z,21.08
2023-01-23T08:27:14.309Z,18.83
2023-01-23T08:29:41.755Z,18.13
2023-01-23T08:32:08.764Z,19.42
2023-01-23T08:34:35.737Z,20.95
2023-01-23T08:37:03.816Z,20.38
2023-01-23T08:39:30.659Z,19.65
2023-01-23T08:41:57.392Z,20.80
2023-01-23T08:44:25.310Z,20.98
2023-01-23T08:46:52.156Z,19.80
2023-01-23T08:49:20.450Z,19.23
2023-01-23T08:51:47.680Z,20.27
2023-01-23T08:54:14.465Z,19.27
2023-01-23T08:56:41.428Z,19.85
2023-01-23T08:59:09.082Z,19.85
2023-01-23T09:01:38.867Z,19.25
2023-01-23T09:04:05.687Z,18.83
2023-01-23T09:06:32.458Z,17.77
2023-01-23T09:08:59.338Z,18.30
2023-01-23T09:11:26.121Z,18.23
2023-01-23T09:13:54.083Z,18.10
2023-01-23T09:16:21.259Z,18.35
2023-01-23T09:18:48.275Z,17.05
2023-01-23T09:21:17.549Z,17.83
2023-01-23T09:23:45.655Z,18.92
2023-01-23T09:26:14.496Z,18.10
2023-01-23T09:28:42.844Z,18.25
2023-01-23T09:31:12.532Z,17.60
2023-01-23T09:33:39.776Z,19.08
2023-01-23T09:36:10.059Z,17.45
2023-01-23T09:38:40.123Z,19.52
2023-01-23T09:41:26.379Z,17.98
2023-01-23T09:44:10.865Z,18.42
2023-01-23T09:46:47.140Z,17.75
2023-01-23T09:49:41.340Z,18.90
2023-01-23T09:52:21.760Z,16.70
2023-01-23T09:54:49.976Z,17.30
2023-01-23T09:57:23.009Z,18.45
2023-01-23T10:00:00.138Z,17.50
2023-01-23T10:02:27.802Z,17.23
2023-01-23T10:04:56.625Z,17.05
2023-01-23T10:07:44.510Z,17.25
2023-01-23T10:10:32.816Z,17.88
2023-01-23T10:13:05.046Z,16.48
2023-01-23T10:15:42.572Z,15.93
2023-01-23T10:18:09.269Z,17.63
2023-01-23T10:20:58.971Z,18.98
2023-01-23T10:23:46.416Z,18.00
2023-01-23T10:26:23.617Z,17.13
2023-01-23T10:28:56.479Z,18.13
2023-01-23T10:31:44.694Z,16.60
2023-01-23T10:34:39.745Z,17.08
2023-01-23T10:37:18.208Z,16.20
2023-01-23T10:39:45.063Z,17.75
2023-01-23T10:42:16.975Z,15.45
2023-01-23T10:44:44.074Z,16.83
2023-01-23T10:47:23.009Z,17.20
2023-01-23T10:49:52.504Z,15.07
2023-01-23T10:52:39.973Z,16.80
2023-01-23T10:55:36.956Z,17.02
2023-01-23T10:58:04.020Z,15.52
2023-01-23T11:00:39.745Z,15.80
2023-01-23T11:03:39.893Z,16.38
2023-01-23T11:06:09.454Z,15.32
2023-01-23T11:08:50.089Z,16.63
2023-01-23T11:11:16.885Z,17.17
2023-01-23T11:13:48.577Z,16.52
2023-01-23T11:16:17.660Z,15.63
2023-01-23T11:18:54.364Z,16.10
2023-01-23T11:21:27.528Z,15.25
2023-01-23T11:24:10.482Z,15.05
2023-01-23T11:26:39.708Z,15.52
2023-01-23T11:29:21.707Z,15.55
2023-01-23T11:31:53.980Z,14.77
2023-01-23T11:34:24.655Z,16.47
2023-01-23T11:37:15.943Z,14.65
2023-01-23T11:39:57.765Z,14.93
2023-01-23T11:42:28.608Z,15.52
2023-01-23T11:44:58.572Z,14.82
2023-01-23T11:47:58.966Z,14.65
2023-01-23T11:50:37.105Z,14.10
2023-01-23T11:54:00.577Z,15.18
2023-01-23T11:56:45.801Z,15.65
2023-01-23T11:59:38.095Z,14.63
2023-01-23T12:02:04.876Z,14.77
2023-01-23T12:04:59.332Z,14.70
2023-01-23T12:07:26.657Z,15.35
2023-01-23T12:10:16.334Z,14.50
2023-01-23T12:12:57.635Z,15.48
2023-01-23T12:15:42.060Z,14.15
2023-01-23T12:18:08.775Z,14.23
2023-01-23T12:21:17.025Z,13.88
2023-01-23T12:24:19.412Z,13.02
2023-01-23T12:27:01.401Z,12.85
2023-01-23T12:29:42.925Z,15.80
2023-01-23T12:32:47.365Z,13.30
2023-01-23T12:35:32.808Z,13.02
2023-01-23T12:38:20.661Z,15.02
2023-01-23T12:40:58.864Z,13.48
2023-01-23T12:44:07.133Z,13.00
2023-01-23T12:46:40.637Z,13.70
2023-01-23T12:49:30.679Z,14.15
2023-01-23T12:52:05.126Z,13.38
2023-01-23T12:54:39.617Z,15.32
2023-01-23T12:57:08.316Z,14.15
2023-01-23T13:00:00.875Z,12.52
2023-01-23T13:02:40.601Z,15.07
2023-01-23T13:05:21.277Z,13.25
2023-01-23T13:07:59.931Z,14.00
2023-01-23T13:11:32.767Z,13.63
2023-01-23T13:14:00.954Z,14.32
2023-01-23T13:16:31.042Z,13.93
2023-01-23T13:19:33.187Z,13.18
2023-01-23T13:22:27.424Z,13.02
2023-01-23T13:25:13.445Z,14.32
2023-01-23T13:27:59.218Z,14.02
2023-01-23T13:30:32.508Z,13.15
2023-01-23T13:35:47.565Z,13.63
2023-01-23T13:38:23.560Z,14.10
2023-01-23T13:41:05.363Z,15.02
2023-01-23T13:43:55.315Z,14.73
2023-01-23T14:21:46.396Z,15.77
2023-01-23T14:27:36.756Z,15.20
2023-01-23T14:30:19.515Z,15.57
2023-01-23T14:32:46.847Z,15.13
2023-01-23T14:35:26.776Z,15.52
2023-01-23T14:37:56.622Z,14.98
2023-01-23T14:40:28.033Z,15.85
2023-01-23T14:43:02.411Z,17.10
2023-01-23T14:45:33.131Z,19.35
2023-01-23T14:48:05.952Z,15.98
2023-01-23T14:50:33.200Z,16.55
2023-01-23T14:53:06.093Z,16.58
2023-01-23T14:55:37.317Z,16.13
2023-01-23T14:58:05.182Z,16.67
2023-01-23T15:00:32.475Z,16.77
2023-01-23T15:02:59.314Z,15.88
2023-01-23T15:05:28.437Z,15.80
2023-01-23T15:08:21.200Z,16.08
2023-01-23T15:10:50.622Z,16.00
2023-01-23T15:13:40.614Z,16.10
2023-01-23T15:16:13.845Z,15.05
2023-01-23T15:21:33.091Z,15.45
2023-01-23T15:24:16.294Z,17.00
2023-01-23T15:26:57.626Z,16.50
2023-01-23T15:29:24.453Z,16.17
2023-01-23T15:31:54.017Z,16.95
2023-01-23T15:34:31.002Z,17.33
2023-01-23T15:37:22.813Z,15.93
2023-01-23T15:40:02.444Z,16.00
2023-01-23T15:42:33.618Z,16.75
2023-01-23T15:45:01.669Z,14.98
2023-01-23T15:47:36.036Z,16.50
2023-01-23T15:50:04.410Z,16.58
2023-01-23T15:52:46.966Z,15.65
2023-01-23T15:55:14.696Z,16.00
2023-01-23T15:57:43.261Z,17.38
2023-01-23T16:00:17.607Z,17.27
2023-01-23T16:02:55.729Z,15.85
2023-01-23T16:05:25.372Z,15.43
2023-01-23T16:07:52.660Z,16.92
2023-01-23T16:10:20.718Z,17.15
2023-01-23T16:12:49.882Z,17.08
2023-01-23T16:15:19.951Z,17.55
2023-01-23T16:17:47.084Z,16.77
2023-01-23T16:20:22.598Z,17.17
2023-01-23T16:22:52.810Z,19.08
2023-01-23T16:25:41.945Z,16.25
2023-01-23T16:28:30.745Z,16.00
2023-01-23T16:30:57.533Z,17.52
2023-01-23T16:33:24.503Z,17.77
2023-01-23T16:35:52.288Z,19.40
2023-01-23T16:38:25.291Z,17.48
2023-01-23T16:40:53.844Z,16.67
2023-01-23T16:43:21.543Z,17.95
2023-01-23T16:45:48.307Z,18.52
2023-01-23T16:48:25.384Z,17.05
2023-01-23T16:50:57.531Z,17.67
2023-01-23T16:53:30.015Z,18.20
2023-01-23T16:55:59.087Z,18.92
2023-01-23T16:58:53.741Z,17.67
2023-01-23T17:01:23.095Z,18.92
2023-01-23T17:04:02.469Z,18.60
2023-01-23T17:06:30.158Z,19.88
2023-01-23T17:08:57.026Z,18.02
2023-01-23T17:11:34.190Z,18.58
2023-01-23T17:14:11.145Z,20.00
2023-01-23T17:16:38.058Z,20.23
2023-01-23T17:19:15.552Z,19.23
2023-01-23T17:21:42.515Z,19.25
2023-01-23T17:24:14.821Z,19.38
2023-01-23T17:26:41.708Z,19.60
2023-01-23T17:29:08.664Z,19.08
2023-01-23T17:31:36.095Z,19.60
2023-01-23T17:34:04.271Z,19.70
2023-01-23T17:36:31.212Z,18.75
2023-01-23T17:39:00.983Z,19.45
2023-01-23T17:41:28.045Z,20.10
2023-01-23T17:43:54.885Z,18.75
2023-01-23T17:46:28.031Z,18.88
2023-01-23T17:48:56.670Z,19.73
2023-01-23T17:51:25.544Z,19.17
2023-01-23T17:53:52.678Z,20.23
2023-01-23T17:56:19.622Z,19.58
2023-01-23T17:58:46.533Z,20.45
2023-01-23T18:01:23.609Z,20.65
2023-01-23T18:03:51.968Z,18.67
2023-01-23T18:06:20.272Z,20.48
2023-01-23T18:08:47.095Z,19.33
2023-01-23T18:11:22.341Z,20.15
2023-01-23T18:13:57.784Z,18.90
2023-01-23T18:16:26.906Z,20.42
2023-01-23T18:19:16.635Z,19.65
2023-01-23T18:21:44.851Z,20.25
2023-01-23T18:24:32.688Z,20.55
2023-01-23T18:27:05.207Z,20.15
2023-01-23T18:29:40.859Z,20.75
2023-01-23T18:32:26.564Z,19.52
2023-01-23T18:35:14.220Z,20.17
2023-01-23T18:37:52.971Z,19.73
2023-01-23T18:40:42.818Z,19.95
2023-01-23T18:43:27.596Z,20.38
2023-01-23T18:45:55.857Z,20.33
2023-01-23T18:48:26.018Z,19.63
2023-01-23T18:51:20.945Z,20.98
2023-01-23T18:53:59.786Z,21.00
2023-01-23T18:56:54.225Z,20.75
2023-01-23T19:02:46.943Z,19.52
2023-01-23T19:05:16.691Z,20.77
2023-01-23T19:07:45.164Z,20.30
2023-01-23T19:10:19.393Z,20.73
2023-01-23T19:13:17.573Z,19.98
2023-01-23T19:16:08.666Z,19.48
2023-01-23T19:18:41.176Z,19.15
2023-01-23T19:21:19.969Z,19.50
2023-01-23T19:23:58.486Z,20.10
2023-01-23T19:26:33.883Z,20.48
2023-01-23T19:29:19.300Z,18.80
2023-01-23T19:32:02.958Z,19.20
2023-01-23T19:34:31.362Z,18.88
2023-01-23T19:36:58.106Z,19.35
2023-01-23T19:39:24.819Z,19.83
2023-01-23T19:41:53.311Z,20.25
2023-01-23T19:44:24.226Z,20.08
2023-01-23T19:46:52.011Z,20.67
2023-01-23T19:49:18.964Z,19.45
2023-01-23T19:51:45.796Z,19.88
2023-01-23T19:54:14.293Z,21.90
2023-01-23T19:56:42.441Z,21.52
2023-01-23T19:59:09.572Z,21.20
2023-01-23T20:01:49.652Z,21.65
2023-01-23T20:04:20.635Z,21.02
2023-01-23T20:06:49.100Z,20.95
2023-01-23T20:09:16.238Z,20.15
2023-01-23T20:11:44.288Z,20.65
2023-01-23T20:14:14.417Z,21.60
2023-01-23T20:16:43.252Z,22.13
2023-01-23T20:19:14.443Z,21.48
2023-01-23T20:21:41.167Z,20.02
2023-01-23T20:24:08.417Z,21.05
2023-01-23T20:26:35.416Z,21.38
2023-01-23T20:29:03.930Z,20.75
2023-01-23T20:31:31.246Z,20.55
2023-01-23T20:33:59.443Z,21.98
2023-01-23T20:36:26.342Z,22.98
2023-01-23T20:38:53.148Z,22.42
2023-01-23T20:41:21.133Z,21.48
2023-01-23T20:43:48.261Z,21.45
2023-01-23T20:46:16.526Z,22.88
2023-01-23T20:48:44.562Z,21.75
2023-01-23T20:51:12.466Z,21.85
2023-01-23T20:53:40.104Z,21.48
2023-01-23T20:56:17.463Z,19.77
2023-01-23T20:59:05.858Z,20.85
2023-01-23T21:01:54.062Z,20.55
2023-01-23T21:04:22.070Z,20.45
2023-01-23T21:06:48.887Z,20.67
2023-01-23T21:09:16.435Z,20.10
2023-01-23T21:11:43.242Z,21.00
2023-01-23T21:14:10.315Z,21.17
2023-01-23T21:16:37.179Z,20.23
2023-01-23T21:19:04.327Z,20.13
2023-01-23T21:21:31.161Z,19.88
2023-01-23T21:23:58.169Z,21.60
2023-01-23T21:26:27.004Z,22.23
2023-01-23T21:28:55.032Z,20.58
2023-01-23T21:31:26.349Z,21.20
2023-01-23T21:33:54.071Z,21.38
2023-01-23T21:36:24.938Z,20.77
2023-01-23T21:38:52.790Z,22.10
2023-01-23T21:41:19.782Z,21.33
2023-01-23T21:43:46.731Z,21.63
2023-01-23T21:46:14.058Z,20.95
2023-01-23T21:48:41.128Z,21.13
2023-01-23T21:51:19.303Z,19.83
2023-01-23T21:53:48.269Z,21.63
2023-01-23T21:56:16.944Z,21.23
2023-01-23T21:58:43.767Z,19.45
2023-01-23T22:01:31.961Z,21.20
2023-01-23T22:04:00.428Z,19.63
2023-01-23T22:06:27.683Z,21.83
2023-01-23T22:08:55.864Z,20.02
2023-01-23T22:11:22.625Z,20.58
2023-01-23T22:13:49.439Z,20.55
2023-01-23T22:16:16.607Z,19.77
2023-01-23T22:18:43.434Z,20.08
2023-01-23T22:21:10.606Z,22.20
2023-01-23T22:23:37.834Z,20.65
2023-01-23T22:26:08.200Z,18.13
2023-01-23T22:28:35.757Z,19.42
2023-01-23T22:31:14.346Z,20.75
2023-01-23T22:33:44.500Z,19.02
2023-01-23T22:36:15.018Z,19.60
2023-01-23T22:38:41.792Z,19.80
2023-01-23T22:41:12.034Z,19.30
2023-01-23T22:43:38.761Z,20.10
2023-01-23T22:46:14.387Z,19.52
2023-01-23T22:48:41.189Z,18.98
2023-01-23T22:51:19.738Z,21.05
2023-01-23T22:53:48.165Z,19.60
2023-01-23T22:56:15.265Z,18.95
2023-01-23T22:58:46.238Z,20.90
2023-01-23T23:01:13.893Z,19.35
2023-01-23T23:03:41.098Z,19.77
2023-01-23T23:06:10.630Z,19.67
2023-01-23T23:08:37.801Z,20.20
2023-01-23T23:11:10.979Z,21.35
2023-01-23T23:13:40.477Z,20.38
2023-01-23T23:16:18.024Z,18.85
2023-01-23T23:18:46.972Z,20.33
2023-01-23T23:21:15.834Z,19.98
2023-01-23T23:23:42.668Z,19.77
2023-01-23T23:26:11.003Z,19.77
2023-01-23T23:28:39.051Z,20.42
2023-01-23T23:31:07.800Z,19.20
2023-01-23T23:33:37.235Z,19.85
2023-01-23T23:36:04.481Z,20.05
2023-01-23T23:38:31.388Z,18.70
2023-01-23T23:41:06.910Z,20.58
2023-01-23T23:43:34.452Z,21.85
2023-01-23T23:46:03.993Z,19.95
2023-01-23T23:48:32.603Z,19.88
2023-01-23T23:51:04.438Z,21.33
2023-01-23T23:53:32.879Z,18.77
2023-01-23T23:56:01.595Z,19.60
2023-01-23T23:58:28.398Z,19.77
